Data for 08/05/2006

Time Sea-Level Adjusted Pressure Absolute Pressure Temperature Relative Humidity Dew Point   
(mb) (inHg) (mb) (inHg) (C) (F) (%) (C) (F)
00:05 1017 30.03 846 24.98 17.7 63.8 47 6.3 43.3
00:10 1017 30.03 847 25.01 17.5 63.5 47 6.2 43.1
00:15 1017 30.03 847 25.01 17.5 63.4 47 6.3 43.3
00:20 1017 30.03 847 25.01 17.3 63.1 48 6.3 43.3
00:25 1017 30.03 846 24.98 17.3 63.1 49 6.5 43.7
00:30 1017 30.03 846 24.98 17.3 63.2 49 6.6 43.9
00:35 1017 30.03 846 24.98 17.5 63.4 49 6.6 43.9
00:40 1017 30.03 846 24.98 17.5 63.6 48 6.5 43.7
00:45 1017 30.03 847 25.01 17.8 64 47 6.4 43.4
00:50 1017 30.03 846 24.98 18 64.4 47 6.6 43.9
00:55 1017 30.03 846 24.98 18.1 64.5 46 6.5 43.7
01:00 1017 30.03 847 25.01 18.2 64.8 46 6.7 44
01:05 1017 30.03 847 25.01 18.3 64.9 46 6.6 43.9
01:10 1017 30.03 846 24.98 18.3 64.9 46 6.6 44
01:15 1017 30.03 847 25.01 18.2 64.8 46 6.5 43.7
01:20 1017 30.03 847 25.01 17.9 64.2 49 7.1 44.7
01:25 1017 30.03 847 25.01 17.6 63.6 50 7.2 45
01:30 1017 30.03 847 25.01 17.5 63.5 49 6.8 44.3
01:35 1017 30.03 847 25.01 17.6 63.6 49 6.8 44.3
01:40 1017 30.03 847 25.01 17.7 63.8 49 7 44.6
01:45 1017 30.03 847 25.01 17.9 64.2 49 7.1 44.8
01:50 1018 30.06 847 25.01 17.9 64.2 49 7.1 44.9
01:55 1018 30.06 847 25.01 17.9 64.1 50 7.3 45.2
02:00 1018 30.06 847 25.01 18 64.4 48 7.1 44.7
02:05 1018 30.06 847 25.01 18 64.4 49 7.2 45
02:10 1018 30.06 847 25.01 18 64.3 49 7.3 45.2
02:15 1018 30.06 847 25.01 17.6 63.7 51 7.6 45.7
02:20 1018 30.06 847 25.01 17.4 63.4 51 7.3 45.1
02:25 1018 30.06 847 25.01 17.5 63.6 51 7.3 45.2
02:30 1018 30.06 847 25.01 17.4 63.4 51 7.2 45
02:35 1018 30.06 847 25.01 17.3 63.1 51 7.3 45.2
02:40 1018 30.06 847 25.01 17.3 63.1 53 7.7 45.8
02:45 1018 30.06 847 25.01 16.8 62.2 54 7.5 45.5
02:50 1018 30.06 847 25.01 16.6 61.9 55 7.6 45.7
02:55 1018 30.06 847 25.01 16.5 61.6 55 7.4 45.4
03:00 1018 30.06 847 25.01 16 60.9 55 7 44.6
03:05 1018 30.06 847 25.01 15.5 59.9 57 7.2 45
03:10 1018 30.06 847 25.01 15.3 59.5 55 6.2 43.2
03:15 1018 30.06 847 25.01 14.8 58.7 55 5.9 42.7
03:20 1018 30.06 847 25.01 14.7 58.5 59 6.8 44.3
03:25 1018 30.06 848 25.04 14.6 58.3 56 6.1 43
03:30 1019 30.09 848 25.04 14.6 58.3 57 6.2 43.1
03:35 1019 30.09 848 25.04 14.8 58.6 57 6.5 43.6
03:40 1018 30.06 848 25.04 14.8 58.6 57 6.5 43.7
03:45 1018 30.06 848 25.04 14.3 57.7 61 7 44.6
03:50 1018 30.06 848 25.04 14.1 57.4 60 6.6 43.8
03:55 1018 30.06 848 25.04 13.9 57 60 6.4 43.5
04:00 1018 30.06 848 25.04 14 57.2 58 5.9 42.7
04:05 1018 30.06 848 25.04 14.8 58.7 54 5.7 42.3
04:10 1018 30.06 848 25.04 15.1 59.1 56 6.4 43.4
04:15 1018 30.06 848 25.04 14.9 58.9 56 6.4 43.5
04:20 1018 30.06 848 25.04 15.2 59.4 55 6.4 43.5
04:25 1019 30.09 848 25.04 15 59 58 6.8 44.3
04:30 1019 30.09 848 25.04 15.1 59.1 57 6.7 44.1
04:35 1019 30.09 848 25.04 14.9 58.8 58 6.7 44
04:40 1019 30.09 848 25.04 14.9 58.8 58 6.7 44.1
04:45 1019 30.09 848 25.04 14.9 58.7 58 6.7 44
04:50 1019 30.09 848 25.04 14.7 58.4 58 6.5 43.7
04:55 1019 30.09 848 25.04 14.3 57.7 59 6.6 43.8
05:00 1019 30.09 848 25.04 14.1 57.3 64 7.5 45.5
05:05 1019 30.09 848 25.04 13.9 57 60 6.3 43.4
05:10 1019 30.09 848 25.04 14.5 58 58 6.4 43.4
05:15 1019 30.09 848 25.04 14.7 58.5 59 6.7 44.1
05:20 1019 30.09 848 25.04 14.5 58.1 60 6.8 44.2
05:25 1019 30.09 848 25.04 14.4 57.8 60 6.7 44.1
05:30 1019 30.09 848 25.04 14.5 58 63 7.6 45.7
05:35 1019 30.09 848 25.04 14.6 58.2 58 6.6 43.9
05:40 1019 30.09 848 25.04 14.5 58.1 60 6.8 44.3
05:45 1019 30.09 848 25.04 14 57.2 64 7.5 45.4
05:50 1019 30.09 848 25.04 14.1 57.3 60 6.4 43.5
05:55 1019 30.09 849 25.07 13.9 57 60 6.3 43.3
06:00 1019 30.09 849 25.07 14.2 57.6 61 6.9 44.4
06:05 1019 30.09 849 25.07 14.2 57.6 60 6.6 43.9
06:10 1020 30.12 849 25.07 13.9 57 60 6.3 43.4
06:15 1020 30.12 849 25.07 13.4 56.2 65 7.1 44.8
06:20 1020 30.12 849 25.07 13.4 56 61 6.1 43.1
06:25 1020 30.12 849 25.07 13.1 55.6 62 6.1 43
06:30 1020 30.12 849 25.07 13 55.4 63 6.2 43.1
06:35 1020 30.12 849 25.07 12.9 55.2 65 6.5 43.7
06:40 1020 30.12 849 25.07 12.7 54.8 64 6.1 42.9
06:45 1020 30.12 849 25.07 13.1 55.5 62 6 42.8
06:50 1020 30.12 849 25.07 13.2 55.7 62 6.2 43.2
06:55 1020 30.12 849 25.07 13.3 56 62 6.3 43.4
07:00 1020 30.12 849 25.07 13.2 55.7 67 7.1 44.8
07:05 1020 30.12 849 25.07 13.1 55.5 64 6.4 43.5
07:10 1020 30.12 850 25.1 13 55.3 63 6.2 43.1
07:15 1021 30.15 850 25.1 13.2 55.8 64 6.6 43.9
07:20 1021 30.15 850 25.1 13.2 55.8 64 6.7 44.1
07:25 1021 30.15 850 25.1 13.6 56.6 62 6.6 43.8
07:30 1021 30.15 850 25.1 14.3 57.7 57 6 42.7
07:35 1021 30.15 850 25.1 14.7 58.5 55 6 42.7
07:40 1021 30.15 850 25.1 15.2 59.3 55 6.3 43.3
07:45 1021 30.15 850 25.1 15.5 59.8 54 6.2 43.1
07:50 1021 30.15 850 25.1 15.6 60 54 6.4 43.4
07:55 1021 30.15 850 25.1 15.6 60.1 54 6.5 43.7
08:00 1021 30.15 850 25.1 15.7 60.2 54 6.5 43.7
08:05 1021 30.15 850 25.1 15.6 60 54 6.3 43.4
08:10 1021 30.15 850 25.1 15.5 59.8 54 6.4 43.5
08:15 1021 30.15 850 25.1 15.4 59.7 55 6.4 43.6
08:20 1021 30.15 850 25.1 15.5 59.9 54 6.4 43.6
08:25 1021 30.15 850 25.1 15.9 60.6 53 6.3 43.4
08:30 1021 30.15 850 25.1 16 60.8 54 6.9 44.4
08:35 1021 30.15 850 25.1 15.7 60.3 55 6.9 44.4
08:40 1021 30.15 850 25.1 16.1 60.9 53 6.6 43.9
08:45 1021 30.15 851 25.13 16.1 61.1 53 6.5 43.7
08:50 1021 30.15 851 25.13 15.9 60.7 54 6.7 44.1
08:55 1021 30.15 851 25.13 16 60.7 54 6.7 44.1
09:00 1021 30.15 851 25.13 15.9 60.6 55 6.9 44.4
09:05 1021 30.15 851 25.13 16.1 60.9 53 6.7 44.1
09:10 1021 30.15 851 25.13 16.5 61.7 52 6.7 44
09:15 1022 30.18 851 25.13 16.6 62 52 6.7 44.1
09:20 1022 30.18 851 25.13 16.4 61.6 52 6.6 43.8
09:25 1022 30.18 851 25.13 16.5 61.6 52 6.6 43.9
09:30 1022 30.18 851 25.13 16.5 61.7 50 6.1 42.9
09:35 1022 30.18 851 25.13 16.7 62.1 50 6.3 43.4
09:40 1022 30.18 851 25.13 17.3 63.2 49 6.7 44.1
09:45 1022 30.18 851 25.13 17.9 64.3 46 6.3 43.3
09:50 1021 30.15 851 25.13 17.4 63.4 48 6.5 43.7
09:55 1021 30.15 851 25.13 17 62.6 49 6.3 43.4
10:00 1021 30.15 851 25.13 17.3 63.2 48 6.3 43.3
10:05 1022 30.18 851 25.13 17.1 62.7 48 6.1 42.9
10:10 1022 30.18 851 25.13 17.6 63.6 48 6.5 43.6
10:15 1022 30.18 851 25.13 17.8 64 47 6.5 43.6
10:20 1022 30.18 851 25.13 18.2 64.8 45 6.2 43.1
10:25 1022 30.18 851 25.13 17.9 64.3 46 6.3 43.4
10:30 1021 30.15 851 25.13 18.2 64.7 44 5.8 42.4
10:35 1021 30.15 851 25.13 18.8 65.9 42 5.9 42.6
10:40 1022 30.18 851 25.13 18.4 65.1 44 6.1 43
10:45 1021 30.15 851 25.13 18.6 65.4 43 5.9 42.5
10:50 1021 30.15 851 25.13 19.1 66.3 42 6.1 43
10:55 1021 30.15 851 25.13 19.3 66.7 41 5.9 42.6
11:00 1021 30.15 851 25.13 19.8 67.6 40 5.9 42.6
11:05 1021 30.15 851 25.13 19.7 67.5 40 6 42.7
11:10 1021 30.15 851 25.13 20 68 38 5.6 42.1
11:15 1021 30.15 851 25.13 20.1 68.2 39 5.7 42.3
11:20 1021 30.15 850 25.1 20.5 68.9 39 6.2 43.1
11:25 1021 30.15 850 25.1 20.5 68.9 38 5.7 42.2
11:30 1021 30.15 850 25.1 20.9 69.6 36 5.4 41.8
11:35 1021 30.15 850 25.1 21.3 70.3 37 6.2 43.1
11:40 1021 30.15 850 25.1 21.5 70.7 35 5.6 42.1
11:45 1021 30.15 850 25.1 21.1 70 37 6 42.7
11:50 1021 30.15 850 25.1 21.8 71.2 33 5 41
11:55 1021 30.15 850 25.1 21.2 70.2 34 5.1 41.2
12:00 1021 30.15 850 25.1 21.5 70.7 34 5 41
12:05 1021 30.15 850 25.1 22.2 72 32 5.1 41.3
12:10 1021 30.15 850 25.1 22.9 73.2 34 6.2 43.2
12:15 1021 30.15 850 25.1 23 73.4 33 6 42.8
12:20 1021 30.15 850 25.1 23.1 73.6 32 5.8 42.5
12:25 1021 30.15 850 25.1 23.4 74.1 31 5.5 41.8
12:30 1021 30.15 850 25.1 23.4 74.1 30 4.9 40.8
12:35 1021 30.15 850 25.1 23.5 74.3 31 5.6 42.1
12:40 1021 30.15 850 25.1 23.5 74.2 30 5.1 41.1
12:45 1021 30.15 850 25.1 23.8 74.8 29 4.9 40.8
12:50 1021 30.15 850 25.1 23.9 75 29 5.1 41.2
12:55 1021 30.15 850 25.1 23.9 75 29 4.9 40.9
13:00 1021 30.15 850 25.1 22.9 73.3 31 5 40.9
13:05 1020 30.12 850 25.1 23.6 74.5 29 4.8 40.6
13:10 1020 30.12 850 25.1 24.2 75.6 28 4.7 40.5
13:15 1020 30.12 850 25.1 24.5 76 27 4.5 40.1
13:20 1020 30.12 850 25.1 23.9 74.9 29 5.1 41.1
13:25 1020 30.12 850 25.1 23.5 74.4 29 4.7 40.5
13:30 1020 30.12 849 25.07 24.2 75.6 27 4.4 39.9
13:35 1020 30.12 849 25.07 24.8 76.7 26 4.5 40.1
13:40 1020 30.12 849 25.07 25.3 77.5 26 4.7 40.4
13:45 1020 30.12 849 25.07 25.8 78.5 26 5.2 41.3
13:50 1020 30.12 849 25.07 25.8 78.5 26 5 41
13:55 1020 30.12 849 25.07 25.8 78.4 26 5 41
14:00 1020 30.12 849 25.07 25.5 77.9 27 5.2 41.3
14:05 1020 30.12 849 25.07 24.7 76.5 26 4.3 39.8
14:10 1020 30.12 849 25.07 25.5 77.9 25 4.2 39.5
14:15 1020 30.12 849 25.07 25.5 77.9 24 3.9 39
14:20 1020 30.12 849 25.07 26.5 79.7 23 3.9 39
14:25 1020 30.12 849 25.07 25.9 78.7 24 4.4 39.9
14:30 1020 30.12 849 25.07 26.3 79.4 23 3.6 38.4
14:35 1020 30.12 849 25.07 26.4 79.5 24 4.4 40
14:40 1020 30.12 849 25.07 26.7 80.1 22 3.7 38.6
14:45 1020 30.12 849 25.07 26.6 79.9 23 4.1 39.3
14:50 1019 30.09 849 25.07 25.3 77.5 24 3.7 38.7
14:55 1019 30.09 849 25.07 26.3 79.3 23 3.7 38.6
15:00 1019 30.09 849 25.07 26.5 79.8 23 4.3 39.7
15:05 1019 30.09 848 25.04 27.1 80.8 22 4 39.2
15:10 1019 30.09 848 25.04 27.2 81 24 5 41
15:15 1019 30.09 848 25.04 26.3 79.4 24 4.6 40.3
15:20 1019 30.09 848 25.04 27.2 80.9 22 4 39.3
15:25 1019 30.09 848 25.04 27.9 82.2 22 4.4 39.9
15:30 1019 30.09 848 25.04 28.1 82.6 22 4.9 40.9
15:35 1019 30.09 848 25.04 28.1 82.5 22 4.6 40.2
15:40 1019 30.09 848 25.04 27.8 82 24 5.5 41.8
15:45 1019 30.09 848 25.04 27 80.5 22 3.5 38.4
15:50 1019 30.09 848 25.04 27.7 81.8 20 3.1 37.5
15:55 1019 30.09 848 25.04 27.7 81.9 21 3.7 38.6
16:00 1019 30.09 848 25.04 28.4 83.1 20 3.9 39
16:05 1019 30.09 848 25.04 28.6 83.5 19 3.4 38.1
16:10 1019 30.09 848 25.04 28.6 83.4 20 3.8 38.8
16:15 1019 30.09 848 25.04 28.7 83.6 18 2.7 36.8
16:20 1019 30.09 848 25.04 28.8 83.8 18 2.7 36.8
16:25 1019 30.09 848 25.04 28.6 83.5 18 2.3 36.2
16:30 1019 30.09 848 25.04 28.7 83.7 18 2.6 36.7
16:35 1019 30.09 848 25.04 29.1 84.3 18 2.4 36.3
16:40 1019 30.09 848 25.04 29 84.1 18 2.5 36.5
16:45 1019 30.09 848 25.04 29.1 84.4 17 2.3 36.1
16:50 1019 30.09 848 25.04 29 84.2 15 0.4 32.7
16:55 1019 30.09 848 25.04 29.1 84.4 16 0.8 33.5
17:00 1019 30.09 848 25.04 29 84.2 16 0.7 33.3
17:05 1019 30.09 848 25.04 28.9 84 15 0.4 32.8
17:10 1019 30.09 848 25.04 28.9 84 15 -0 32
17:15 1019 30.09 848 25.04 29.1 84.4 15 0.6 33.1
17:20 1018 30.06 848 25.04 29.4 84.9 14 -0.1 31.9
17:25 1018 30.06 848 25.04 29.1 84.4 15 0.2 32.3
17:30 1018 30.06 848 25.04 29.1 84.3 15 0.1 32.1
17:35 1018 30.06 848 25.04 29.3 84.7 15 0.3 32.5
17:40 1018 30.06 848 25.04 29.4 84.9 15 0.1 32.2
17:45 1018 30.06 848 25.04 29.3 84.7 15 0.3 32.6
17:50 1018 30.06 848 25.04 29.2 84.5 15 0.2 32.4
17:55 1018 30.06 848 25.04 29.7 85.4 15 0.5 32.8
18:00 1018 30.06 848 25.04 29.8 85.7 14 0 32.1
18:05 1018 30.06 848 25.04 29.6 85.4 14 -0.1 31.8
18:10 1018 30.06 847 25.01 29.4 85 15 -0 32
18:15 1018 30.06 847 25.01 29.1 84.5 14 -0.4 31.3
18:20 1018 30.06 847 25.01 29.4 85 15 0.3 32.5
18:25 1018 30.06 847 25.01 29.3 84.8 14 -0.3 31.5
18:30 1018 30.06 847 25.01 29.2 84.6 14 -0.4 31.4
18:35 1018 30.06 847 25.01 28.7 83.7 15 0.1 32.1
18:40 1018 30.06 847 25.01 28.8 83.8 15 -0.6 31
18:45 1018 30.06 847 25.01 28.9 84 15 0.3 32.5
18:50 1018 30.06 847 25.01 29 84.3 15 0.2 32.3
18:55 1018 30.06 847 25.01 29 84.2 15 0.1 32.2
19:00 1018 30.06 847 25.01 28.4 83.1 16 0.3 32.5
19:05 1018 30.06 847 25.01 27.9 82.3 15 -0.3 31.4
19:10 1018 30.06 847 25.01 28 82.4 19 2.2 36
19:15 1018 30.06 847 25.01 27.9 82.1 18 1.4 34.5
19:20 1018 30.06 847 25.01 27.9 82.2 18 1.5 34.8
19:25 1018 30.06 847 25.01 27.7 81.9 16 0 32
19:30 1018 30.06 847 25.01 27.5 81.5 15 -0.7 30.7
19:35 1018 30.06 847 25.01 27.4 81.3 16 -0.1 31.9
19:40 1018 30.06 847 25.01 27.5 81.5 16 -0.3 31.4
19:45 1018 30.06 847 25.01 27.7 81.8 17 1 33.8
19:50 1018 30.06 847 25.01 27.6 81.7 20 2.8 37
19:55 1018 30.06 847 25.01 27.4 81.2 18 1 33.7
20:00 1018 30.06 847 25.01 27.2 80.9 16 -0.9 30.4
20:05 1018 30.06 847 25.01 27 80.6 16 -0.6 31
20:10 1018 30.06 847 25.01 27.1 80.8 18 0.9 33.6
20:15 1018 30.06 847 25.01 27.2 80.9 18 1.4 34.6
20:20 1018 30.06 847 25.01 27.1 80.8 18 0.9 33.6
20:25 1018 30.06 847 25.01 27 80.6 18 0.7 33.2
20:30 1018 30.06 848 25.04 26.9 80.5 19 1.5 34.8
20:35 1018 30.06 848 25.04 26.8 80.2 20 2.4 36.2
20:40 1018 30.06 848 25.04 26.6 79.8 20 2 35.5
20:45 1019 30.09 848 25.04 26.1 79 28 6.5 43.7
20:50 1019 30.09 848 25.04 24.8 76.6 28 5.5 41.9
20:55 1019 30.09 848 25.04 24.3 75.8 28 5.1 41.2
21:00 1019 30.09 848 25.04 24.2 75.5 29 5.5 41.9
21:05 1019 30.09 848 25.04 23.8 74.8 30 5.5 41.9
21:10 1019 30.09 848 25.04 23.6 74.4 30 5.4 41.7
21:15 1019 30.09 848 25.04 23.3 73.9 31 5.3 41.6
21:20 1019 30.09 848 25.04 23 73.4 31 5.2 41.4
21:25 1019 30.09 848 25.04 22.9 73.1 31 5 41
21:30 1019 30.09 848 25.04 22.8 73.1 31 4.9 40.9
21:35 1019 30.09 848 25.04 22.7 72.8 31 4.9 40.7
21:40 1019 30.09 848 25.04 22.5 72.5 31 4.9 40.9
21:45 1019 30.09 849 25.07 22.3 72.2 31 4.7 40.5
21:50 1019 30.09 849 25.07 22.2 72 31 4.6 40.3
21:55 1019 30.09 849 25.07 22.2 71.9 32 4.7 40.5
22:00 1019 30.09 849 25.07 22.1 71.7 32 4.6 40.3
22:05 1020 30.12 849 25.07 21.9 71.4 32 4.6 40.2
22:10 1019 30.09 849 25.07 21.8 71.3 32 4.5 40
22:15 1020 30.12 849 25.07 21.7 71.1 32 4.4 39.9
22:20 1020 30.12 849 25.07 21.7 71 32 4.4 39.9
22:25 1020 30.12 849 25.07 21.5 70.7 32 4.3 39.8
22:30 1020 30.12 849 25.07 21.4 70.6 32 4.3 39.8
22:35 1020 30.12 849 25.07 21.3 70.3 32 4.3 39.7
22:40 1020 30.12 849 25.07 21.2 70.1 32 4.1 39.5
22:45 1020 30.12 849 25.07 21.1 70 32 4 39.2
22:50 1020 30.12 849 25.07 21.1 70 32 3.9 39
22:55 1020 30.12 849 25.07 21.1 69.9 32 3.8 38.8
23:00 1020 30.12 849 25.07 20.9 69.6 32 3.8 38.9
23:05 1020 30.12 849 25.07 20.7 69.3 32 3.7 38.7
23:10 1020 30.12 849 25.07 20.6 69.1 32 3.5 38.2
23:15 1020 30.12 849 25.07 20.5 68.9 32 3.4 38.2
23:20 1020 30.12 849 25.07 20.5 68.8 31 3.1 37.6
23:25 1020 30.12 849 25.07 20.5 68.9 31 3.1 37.6
23:30 1020 30.12 849 25.07 20.4 68.7 31 3 37.4
23:35 1020 30.12 849 25.07 20.4 68.7 31 3.1 37.5
23:40 1020 30.12 849 25.07 20.2 68.4 32 3.1 37.5
23:45 1020 30.12 849 25.07 20 68.1 32 3 37.4
23:50 1020 30.12 849 25.07 20 67.9 32 2.8 37.1
23:55 1020 30.12 849 25.07 20 68 32 3 37.4
24:00 1020 30.12 849 25.07 19.9 67.7 32 2.9 37.1